Time;durP1;ratioP1;P1;durP2;ratioP2;P2;SDS_P1;SDS_P2;PMS_P1;PMS_P2;Temp;Humidity;BMP_temperature;BMP_pressure;BME280_temperature;BME280_humidity;BME280_pressure;Samples;Min_cycle;Max_cycle;Signal;HPM_P1;HPM_P2
2021/10/17 00:00:05;;;;;;;25.65;16.00;;;;;;;7.09;62.05;99711.44;1732645;82;21504;-37
2021/10/17 00:02:33;;;;;;;23.55;15.72;;;;;;;7.04;62.19;99710.28;1731973;82;21030;-37
2021/10/17 00:05:00;;;;;;;25.43;16.00;;;;;;;6.98;62.30;99706.98;1732566;82;21877;-37
2021/10/17 00:07:26;;;;;;;24.82;15.65;;;;;;;6.93;62.38;99705.83;1732360;82;21000;-38
2021/10/17 00:09:53;;;;;;;26.33;15.40;;;;;;;6.89;62.38;99710.30;1732666;82;20993;-37
2021/10/17 00:12:19;;;;;;;25.35;15.60;;;;;;;6.85;62.52;99701.28;1732722;82;20985;-37
2021/10/17 00:14:46;;;;;;;22.60;15.08;;;;;;;6.81;62.61;99710.35;1732670;82;21041;-37
2021/10/17 00:17:12;;;;;;;26.20;15.40;;;;;;;6.79;62.70;99709.88;1732809;82;21796;-37
2021/10/17 00:19:39;;;;;;;22.65;14.70;;;;;;;6.82;62.83;99706.55;1732665;82;21046;-37
2021/10/17 00:22:05;;;;;;;26.15;15.25;;;;;;;6.83;62.91;99712.14;1732564;82;20959;-37
2021/10/17 00:24:33;;;;;;;19.23;14.00;;;;;;;6.77;62.86;99708.88;1732728;82;21539;-37
2021/10/17 00:26:59;;;;;;;21.90;14.70;;;;;;;6.71;63.16;99705.33;1732516;82;21563;-37
2021/10/17 00:29:26;;;;;;;22.82;14.47;;;;;;;6.68;63.19;99702.71;1732534;82;21475;-37
2021/10/17 00:31:53;;;;;;;25.77;14.35;;;;;;;6.67;63.16;99697.67;1732421;82;20986;-37
2021/10/17 00:34:19;;;;;;;22.20;15.48;;;;;;;6.65;63.50;99700.67;1732785;82;21061;-37
2021/10/17 00:36:47;;;;;;;20.75;15.60;;;;;;;6.65;63.51;99697.19;1732673;82;21511;-37
2021/10/17 00:39:13;;;;;;;23.35;14.63;;;;;;;6.62;63.61;99704.03;1732593;82;21061;-37
2021/10/17 00:41:40;;;;;;;18.40;13.80;;;;;;;6.61;63.67;99700.30;1732778;82;21825;-37
2021/10/17 00:44:07;;;;;;;22.40;14.40;;;;;;;6.55;63.96;99699.69;1732694;82;21519;-37
2021/10/17 00:46:33;;;;;;;22.85;15.40;;;;;;;6.51;63.48;99698.21;1732816;82;20935;-37
2021/10/17 00:49:00;;;;;;;21.90;14.55;;;;;;;6.50;63.19;99695.28;1736832;82;21022;-37
2021/10/17 00:51:27;;;;;;;17.85;13.25;;;;;;;6.47;63.25;99705.36;1743418;80;21104;-37
2021/10/17 00:53:55;;;;;;;22.10;13.85;;;;;;;6.45;63.28;99700.84;1751324;82;21087;-37
2021/10/17 00:56:22;;;;;;;18.57;13.30;;;;;;;6.47;63.04;99695.14;1750950;82;20930;-37
2021/10/17 00:58:48;;;;;;;20.45;13.32;;;;;;;6.53;62.61;99698.66;1751282;82;21554;-37
2021/10/17 01:01:15;;;;;;;22.48;13.85;;;;;;;6.57;62.36;99704.21;1751113;82;20996;-37
2021/10/17 01:03:43;;;;;;;19.77;13.75;;;;;;;6.59;62.16;99697.92;1751102;82;21048;-37
2021/10/17 01:06:12;;;;;;;25.05;14.60;;;;;;;6.58;62.27;99698.27;1750834;82;21026;-37
2021/10/17 01:08:38;;;;;;;20.92;14.20;;;;;;;6.57;62.34;99696.13;1750975;82;21523;-38
2021/10/17 01:11:05;;;;;;;20.68;14.07;;;;;;;6.55;62.43;99699.14;1750643;82;21535;-37
2021/10/17 01:13:32;;;;;;;21.68;13.25;;;;;;;6.55;62.40;99702.39;1750951;82;20993;-37
2021/10/17 01:15:59;;;;;;;23.83;14.00;;;;;;;6.52;62.42;99697.11;1751011;82;21483;-37
2021/10/17 01:18:32;;;;;;;19.37;13.40;;;;;;;6.50;62.51;99695.28;1750363;82;21781;-37
2021/10/17 01:21:00;;;;;;;21.42;14.28;;;;;;;6.45;62.50;99702.19;1750915;82;20929;-37
2021/10/17 01:23:27;;;;;;;19.55;13.20;;;;;;;6.43;62.61;99703.09;1751082;82;21112;-37
2021/10/17 01:25:54;;;;;;;20.48;13.72;;;;;;;6.41;62.66;99701.81;1750855;82;21605;-37
2021/10/17 01:28:21;;;;;;;22.62;13.18;;;;;;;6.38;62.90;99699.78;1750962;82;21028;-37
2021/10/17 01:30:48;;;;;;;21.80;13.62;;;;;;;6.35;63.12;99699.06;1750982;82;21139;-37
2021/10/17 01:33:15;;;;;;;20.15;13.03;;;;;;;6.32;63.60;99695.67;1750946;82;21036;-37
2021/10/17 01:35:42;;;;;;;22.07;12.98;;;;;;;6.37;64.16;99703.03;1751121;82;21027;-36
2021/10/17 01:38:10;;;;;;;19.60;12.95;;;;;;;6.48;64.04;99699.42;1751061;82;21496;-37
2021/10/17 01:40:37;;;;;;;20.12;12.82;;;;;;;6.61;64.11;99705.70;1751250;82;21526;-37
2021/10/17 01:43:04;;;;;;;22.02;13.50;;;;;;;6.66;64.03;99702.81;1751047;82;21085;-37
2021/10/17 01:45:36;;;;;;;18.77;13.45;;;;;;;6.72;64.25;99705.56;1749354;82;21092;-37
2021/10/17 01:48:03;;;;;;;19.35;13.08;;;;;;;6.75;64.62;99707.05;1749942;82;21575;-37
2021/10/17 01:50:31;;;;;;;19.90;13.18;;;;;;;6.80;64.84;99706.86;1748443;81;21081;-37
2021/10/17 01:52:58;;;;;;;19.10;13.08;;;;;;;6.85;64.92;99710.72;1711320;82;21002;-37
2021/10/17 01:55:25;;;;;;;23.45;13.55;;;;;;;6.88;65.10;99707.36;1736332;82;21065;-37
2021/10/17 01:57:52;;;;;;;18.80;13.05;;;;;;;6.92;65.34;99711.56;1736066;82;21032;-37
2021/10/17 02:03:17;;;;;;;20.12;12.05;;;;;;;7.03;65.82;99707.35;1796693;79;22587;-37
2021/10/17 02:05:46;;;;;;;23.50;13.95;;;;;;;7.01;66.18;99714.99;1756798;81;21004;-37
2021/10/17 02:08:14;;;;;;;22.42;14.20;;;;;;;7.04;66.49;99707.59;1756695;81;21759;-37
2021/10/17 02:10:41;;;;;;;19.52;13.32;;;;;;;7.13;66.67;99715.61;1756714;81;20910;-37
2021/10/17 02:13:09;;;;;;;20.50;13.08;;;;;;;7.20;66.72;99717.25;1756610;81;20958;-36
2021/10/17 02:15:36;;;;;;;20.50;12.98;;;;;;;7.24;66.68;99717.61;1756789;81;21005;-36
2021/10/17 02:18:03;;;;;;;20.52;13.00;;;;;;;7.27;66.72;99719.64;1756793;81;21205;-37
2021/10/17 02:20:34;;;;;;;20.05;12.60;;;;;;;7.35;66.63;99717.45;1756727;81;21076;-37
2021/10/17 02:23:04;;;;;;;22.10;12.47;;;;;;;7.50;66.54;99719.33;1756684;81;20976;-37
2021/10/17 02:25:33;;;;;;;23.52;13.95;;;;;;;7.61;66.36;99720.48;1757434;81;20983;-37
2021/10/17 02:28:00;;;;;;;18.48;12.93;;;;;;;7.64;66.31;99719.84;1737494;81;21521;-37
2021/10/17 02:30:27;;;;;;;19.25;12.78;;;;;;;7.68;66.47;99724.80;1756992;81;21041;-36
2021/10/17 02:32:58;;;;;;;26.30;14.40;;;;;;;7.74;66.40;99725.63;1755415;81;21993;-37
2021/10/17 02:35:27;;;;;;;19.73;13.43;;;;;;;7.81;66.33;99727.77;1756389;81;21519;-37
2021/10/17 02:37:54;;;;;;;23.45;13.48;;;;;;;7.84;66.22;99721.73;1756717;81;21499;-37
2021/10/17 02:40:20;;;;;;;23.65;14.10;;;;;;;7.87;66.15;99725.09;1756478;81;20965;-36
2021/10/17 02:42:47;;;;;;;20.72;12.07;;;;;;;7.91;66.17;99730.61;1756695;81;21017;-37
2021/10/17 02:45:14;;;;;;;19.25;12.25;;;;;;;7.95;66.29;99728.83;1756827;81;21835;-37
2021/10/17 02:47:41;;;;;;;20.05;12.35;;;;;;;8.03;66.59;99727.97;1756567;81;20965;-37
2021/10/17 02:50:08;;;;;;;20.72;13.43;;;;;;;8.11;66.90;99718.42;1756904;81;20965;-37
2021/10/17 02:52:36;;;;;;;24.02;13.43;;;;;;;8.18;67.16;99722.70;1756686;81;21029;-37
2021/10/17 02:55:04;;;;;;;19.05;12.82;;;;;;;8.22;67.41;99716.88;1757103;81;21033;-37
2021/10/17 02:57:32;;;;;;;23.52;13.13;;;;;;;8.26;67.56;99725.09;1756813;81;20953;-37
2021/10/17 02:59:59;;;;;;;20.08;13.15;;;;;;;8.28;67.58;99720.92;1756769;81;21006;-37
2021/10/17 03:02:26;;;;;;;18.75;11.95;;;;;;;8.32;67.60;99717.60;1756957;81;21016;-37
2021/10/17 03:04:53;;;;;;;19.52;12.00;;;;;;;8.39;67.57;99723.22;1757037;81;21017;-37
2021/10/17 03:07:20;;;;;;;20.88;12.40;;;;;;;8.47;67.42;99722.36;1757129;81;21001;-37
2021/10/17 03:09:48;;;;;;;17.55;11.95;;;;;;;8.55;67.34;99722.80;1756010;81;21154;-37
2021/10/17 03:12:15;;;;;;;20.12;13.25;;;;;;;8.59;67.23;99719.09;1757005;81;20938;-36
2021/10/17 03:14:43;;;;;;;21.77;12.73;;;;;;;8.62;67.16;99720.31;1756517;81;20989;-37
2021/10/17 03:17:11;;;;;;;20.88;13.30;;;;;;;8.62;67.12;99721.66;1756358;81;21599;-37
2021/10/17 03:19:40;;;;;;;22.95;13.00;;;;;;;8.66;67.08;99721.24;1756338;81;21582;-36
2021/10/17 03:22:07;;;;;;;22.05;12.05;;;;;;;8.71;66.92;99721.02;1756388;81;21120;-37
2021/10/17 03:24:34;;;;;;;21.95;11.38;;;;;;;8.78;66.66;99725.84;1756432;81;21004;-37
2021/10/17 03:27:01;;;;;;;19.23;11.83;;;;;;;8.84;66.49;99727.98;1756252;81;20933;-37
2021/10/17 03:29:28;;;;;;;21.07;12.85;;;;;;;8.89;66.42;99723.70;1756340;81;20925;-36
2021/10/17 03:31:56;;;;;;;21.87;12.60;;;;;;;8.90;66.36;99721.23;1756278;81;21069;-37
2021/10/17 03:34:23;;;;;;;21.55;12.95;;;;;;;8.92;66.28;99724.38;1756636;81;21089;-37
2021/10/17 03:36:50;;;;;;;26.93;13.15;;;;;;;8.95;66.25;99721.02;1756177;81;21025;-37
2021/10/17 03:39:17;;;;;;;20.72;13.08;;;;;;;8.97;66.22;99724.14;1756542;81;20898;-37
2021/10/17 03:41:44;;;;;;;21.40;12.70;;;;;;;8.97;66.10;99721.44;1756396;81;21037;-37
2021/10/17 03:44:11;;;;;;;19.42;11.25;;;;;;;9.00;66.07;99723.48;1756411;81;21065;-37
2021/10/17 03:46:39;;;;;;;19.20;11.48;;;;;;;9.04;65.90;99726.29;1756595;81;21554;-37
2021/10/17 03:49:06;;;;;;;19.37;11.18;;;;;;;9.09;65.98;99727.41;1756406;81;21021;-37
2021/10/17 03:51:32;;;;;;;19.32;12.73;;;;;;;9.11;65.80;99727.28;1756479;81;21000;-37
2021/10/17 03:54:00;;;;;;;18.62;11.43;;;;;;;9.09;65.86;99730.12;1756707;81;21045;-37
2021/10/17 03:56:28;;;;;;;19.20;11.97;;;;;;;9.08;65.89;99730.68;1756506;81;21087;-37
2021/10/17 03:58:55;;;;;;;20.82;11.85;;;;;;;9.02;66.02;99728.53;1756599;81;21124;-37
2021/10/17 04:01:24;;;;;;;21.60;12.63;;;;;;;9.00;66.14;99734.30;1756622;81;21075;-37
2021/10/17 04:03:50;;;;;;;22.50;12.43;;;;;;;8.99;66.18;99733.28;1756361;81;21016;-37
2021/10/17 04:06:17;;;;;;;19.73;11.15;;;;;;;8.99;66.28;99732.72;1756318;81;20929;-37
2021/10/17 04:08:44;;;;;;;20.37;10.00;;;;;;;8.98;66.18;99735.19;1766346;81;21072;-37
2021/10/17 04:11:11;;;;;;;19.90;10.60;;;;;;;9.02;66.16;99736.09;1759344;81;21115;-37
2021/10/17 04:13:39;;;;;;;18.57;10.58;;;;;;;9.03;66.20;99732.26;1756834;81;20945;-36
2021/10/17 04:16:07;;;;;;;18.10;10.55;;;;;;;9.02;66.25;99737.44;1756246;81;21029;-37
2021/10/17 04:18:37;;;;;;;16.25;11.15;;;;;;;8.96;66.38;99737.44;1756513;81;21033;-37
2021/10/17 04:21:04;;;;;;;20.60;10.85;;;;;;;8.94;66.49;99739.70;1756652;81;21084;-37
2021/10/17 04:23:31;;;;;;;21.17;11.25;;;;;;;8.92;66.47;99742.51;1756285;81;21084;-37
2021/10/17 04:25:58;;;;;;;16.32;10.53;;;;;;;8.87;66.59;99748.14;1756279;81;21562;-37
2021/10/17 04:28:26;;;;;;;18.02;10.70;;;;;;;8.87;66.65;99757.05;1756394;81;20926;-37
2021/10/17 04:30:53;;;;;;;18.85;10.30;;;;;;;8.91;66.74;99744.42;1756369;81;21582;-37
2021/10/17 04:33:20;;;;;;;18.75;10.98;;;;;;;8.96;66.72;99750.16;1756428;81;21315;-37
2021/10/17 04:35:46;;;;;;;18.60;11.08;;;;;;;8.97;66.69;99741.72;1756547;81;21173;-37
2021/10/17 04:38:14;;;;;;;17.80;10.63;;;;;;;8.99;66.67;99745.45;1756532;81;20978;-37
2021/10/17 04:40:41;;;;;;;22.48;11.93;;;;;;;9.03;66.58;99751.75;1756445;81;21012;-37
2021/10/17 04:43:08;;;;;;;17.85;11.35;;;;;;;9.02;66.53;99746.11;1756549;81;21366;-37
2021/10/17 04:45:37;;;;;;;18.85;11.75;;;;;;;8.98;66.54;99756.83;1756581;81;21589;-37
2021/10/17 04:48:06;;;;;;;18.50;11.45;;;;;;;8.96;66.55;99753.66;1756400;81;21169;-37
2021/10/17 04:50:34;;;;;;;14.98;10.55;;;;;;;8.98;66.43;99754.12;1756350;81;20965;-37
2021/10/17 04:53:01;;;;;;;14.90;9.68;;;;;;;9.01;66.40;99754.78;1756086;80;20914;-37
2021/10/17 04:55:27;;;;;;;19.20;10.30;;;;;;;9.00;66.44;99753.23;1720166;83;21367;-37
2021/10/17 04:57:56;;;;;;;16.45;10.53;;;;;;;8.94;66.53;99757.28;1702110;84;21066;-37
2021/10/17 05:00:24;;;;;;;16.97;10.53;;;;;;;8.90;66.60;99757.73;1702422;84;21119;-37
2021/10/17 05:02:53;;;;;;;17.00;9.95;;;;;;;8.87;66.79;99757.05;1697958;84;21043;-37
2021/10/17 05:05:20;;;;;;;17.35;10.23;;;;;;;8.86;66.84;99760.87;1694141;84;21090;-36
2021/10/17 05:07:46;;;;;;;13.48;8.93;;;;;;;8.87;66.91;99756.25;1693931;84;20979;-37
2021/10/17 05:10:13;;;;;;;14.87;8.63;;;;;;;8.89;66.76;99758.86;1707155;84;21037;-37
2021/10/17 05:12:41;;;;;;;17.77;9.20;;;;;;;8.92;66.71;99762.78;1707186;84;21160;-37
2021/10/17 05:15:09;;;;;;;14.25;9.08;;;;;;;8.93;66.80;99755.70;1707201;84;20985;-37
2021/10/17 05:17:35;;;;;;;15.25;9.53;;;;;;;8.93;66.84;99757.61;1707163;84;21516;-37
2021/10/17 05:20:05;;;;;;;16.70;9.15;;;;;;;8.92;66.91;99764.14;1707138;84;21025;-36
2021/10/17 05:22:32;;;;;;;16.30;9.83;;;;;;;8.92;66.94;99763.58;1707162;84;21027;-37
2021/10/17 05:24:58;;;;;;;15.50;9.03;;;;;;;8.90;66.97;99763.70;1707590;84;21077;-37
2021/10/17 05:27:25;;;;;;;15.40;9.03;;;;;;;8.89;66.98;99768.32;1706937;84;21038;-37
2021/10/17 05:29:51;;;;;;;19.80;8.78;;;;;;;8.92;66.91;99768.20;1707282;84;20954;-37
2021/10/17 05:32:20;;;;;;;14.65;8.78;;;;;;;8.99;66.64;99769.78;1707016;84;21025;-37
2021/10/17 05:34:47;;;;;;;14.85;8.63;;;;;;;9.03;66.58;99770.13;1706976;84;21046;-37
2021/10/17 05:37:14;;;;;;;16.70;8.70;;;;;;;9.00;66.63;99782.98;1706827;84;21143;-37
2021/10/17 05:39:41;;;;;;;15.95;8.03;;;;;;;8.97;66.70;99774.17;1707304;84;21021;-37
2021/10/17 05:42:08;;;;;;;16.75;8.98;;;;;;;8.97;66.69;99772.82;1706820;84;21029;-37
2021/10/17 05:44:34;;;;;;;15.38;8.98;;;;;;;8.93;66.72;99777.33;1707416;84;20985;-37
2021/10/17 05:47:02;;;;;;;14.85;7.95;;;;;;;8.90;66.91;99771.81;1707034;84;21003;-37
2021/10/17 05:49:28;;;;;;;14.33;7.60;;;;;;;8.94;66.92;99778.13;1707176;84;21703;-36
2021/10/17 05:51:56;;;;;;;18.90;8.43;;;;;;;9.01;66.82;99772.92;1707056;84;20943;-36
2021/10/17 05:54:22;;;;;;;16.55;8.58;;;;;;;9.08;66.78;99775.30;1707007;83;21030;-37
2021/10/17 05:56:49;;;;;;;15.20;8.93;;;;;;;9.11;66.60;99779.23;1707135;84;21019;-37
2021/10/17 05:59:17;;;;;;;15.08;8.03;;;;;;;9.12;66.48;99780.25;1707514;84;21065;-37
2021/10/17 06:01:44;;;;;;;14.78;8.40;;;;;;;9.13;66.54;99776.43;1707357;84;21143;-37
2021/10/17 06:04:13;;;;;;;20.10;9.28;;;;;;;9.18;66.58;99780.03;1706711;84;21017;-37
2021/10/17 06:06:42;;;;;;;12.28;7.95;;;;;;;9.23;66.28;99777.09;1706141;84;20993;-37
2021/10/17 06:09:10;;;;;;;16.12;7.67;;;;;;;9.25;66.03;99774.82;1707399;84;21057;-37
2021/10/17 06:11:38;;;;;;;13.43;7.87;;;;;;;9.28;65.99;99779.01;1707077;83;21065;-37
2021/10/17 06:14:06;;;;;;;15.48;8.50;;;;;;;9.31;65.79;99793.77;1707102;83;21961;-37
2021/10/17 06:16:33;;;;;;;15.43;7.92;;;;;;;9.30;65.79;99785.41;1707092;84;21042;-37
2021/10/17 06:19:00;;;;;;;12.85;7.62;;;;;;;9.29;65.83;99790.06;1707301;83;21496;-37
2021/10/17 06:21:28;;;;;;;20.23;8.48;;;;;;;9.26;65.67;99793.98;1706893;84;21032;-37
2021/10/17 06:23:55;;;;;;;16.05;7.85;;;;;;;9.24;65.82;99794.34;1707235;84;21124;-37
2021/10/17 06:26:22;;;;;;;18.82;7.58;;;;;;;9.27;65.62;99794.22;1707197;83;21964;-37
2021/10/17 06:28:51;;;;;;;15.83;7.17;;;;;;;9.31;65.43;99789.70;1706960;84;21089;-37
2021/10/17 06:31:17;;;;;;;13.68;7.83;;;;;;;9.40;65.35;99792.51;1707101;84;21002;-37
2021/10/17 06:33:44;;;;;;;13.80;7.30;;;;;;;9.48;65.32;99797.02;1707420;83;20993;-37
2021/10/17 06:36:12;;;;;;;12.05;7.05;;;;;;;9.53;64.52;99797.35;1707063;84;21002;-37
2021/10/17 06:38:38;;;;;;;11.80;7.65;;;;;;;9.50;64.37;99799.37;1707483;84;21111;-37
2021/10/17 06:41:05;;;;;;;19.10;8.50;;;;;;;9.47;64.55;99797.36;1707080;84;21049;-37
2021/10/17 06:43:32;;;;;;;14.47;7.50;;;;;;;9.45;64.44;99794.98;1707220;83;21524;-37
2021/10/17 06:46:14;;;;;;;14.55;8.05;;;;;;;9.45;64.29;99796.89;1707020;83;21003;-37
2021/10/17 06:48:41;;;;;;;16.50;7.58;;;;;;;9.45;64.48;99804.45;1707597;83;21078;-37
2021/10/17 06:51:08;;;;;;;13.03;6.35;;;;;;;9.52;64.28;99798.47;1706971;84;21788;-37
2021/10/17 06:53:36;;;;;;;13.25;7.20;;;;;;;9.59;63.89;99807.58;1707131;84;21009;-37
2021/10/17 06:56:05;;;;;;;12.98;6.53;;;;;;;9.63;63.92;99801.50;1707154;84;20939;-37
2021/10/17 06:58:32;;;;;;;15.93;7.12;;;;;;;9.64;63.56;99803.06;1707484;84;21074;-37
2021/10/17 07:00:59;;;;;;;13.83;7.25;;;;;;;9.67;63.79;99804.54;1707198;84;21041;-37
2021/10/17 07:03:26;;;;;;;16.62;7.53;;;;;;;9.72;63.61;99804.86;1709203;83;21142;-36
2021/10/17 07:06:02;;;;;;;14.90;6.83;;;;;;;9.75;63.33;99806.88;1712065;83;20985;-37
2021/10/17 07:08:29;;;;;;;17.52;7.03;;;;;;;9.77;63.01;99802.70;1687287;83;21512;-37
2021/10/17 07:10:57;;;;;;;14.23;7.37;;;;;;;9.75;62.87;99800.11;1712619;83;21001;-37
2021/10/17 07:13:26;;;;;;;13.53;7.35;;;;;;;9.78;63.35;99806.97;1695315;83;21853;-37
2021/10/17 07:15:54;;;;;;;13.32;6.80;;;;;;;9.87;63.20;99808.20;1712552;83;21136;-36
2021/10/17 07:18:22;;;;;;;16.62;7.37;;;;;;;10.01;62.90;99808.05;1712787;83;21042;-37
2021/10/17 07:20:50;;;;;;;16.93;7.50;;;;;;;10.15;62.75;99809.56;1713000;83;21040;-37
2021/10/17 07:23:17;;;;;;;19.32;7.25;;;;;;;10.28;62.43;99807.05;1713017;83;21084;-37
2021/10/17 07:25:44;;;;;;;15.25;6.65;;;;;;;10.41;62.16;99811.26;1712989;83;21081;-37
2021/10/17 07:28:11;;;;;;;13.35;6.62;;;;;;;10.53;61.68;99811.77;1712957;83;21099;-37
2021/10/17 07:30:40;;;;;;;14.03;7.03;;;;;;;10.57;61.13;99813.44;1710061;83;21052;-37
2021/10/17 07:33:07;;;;;;;13.28;7.12;;;;;;;10.61;60.91;99818.38;1712639;83;21037;-37
2021/10/17 07:35:34;;;;;;;15.58;7.75;;;;;;;10.59;60.67;99808.47;1712788;83;21013;-37
2021/10/17 07:38:02;;;;;;;15.05;7.60;;;;;;;10.60;60.86;99811.37;1712890;83;21048;-37
2021/10/17 07:40:29;;;;;;;16.02;7.70;;;;;;;10.62;60.74;99813.19;1712648;83;21142;-37
2021/10/17 07:42:57;;;;;;;19.12;8.20;;;;;;;10.61;60.88;99817.02;1712944;83;21665;-37
2021/10/17 07:45:25;;;;;;;15.35;7.67;;;;;;;10.66;60.86;99816.77;1712758;83;21089;-37
2021/10/17 07:47:56;;;;;;;15.63;7.75;;;;;;;10.70;60.64;99814.93;1712869;83;21201;-37
2021/10/17 07:50:23;;;;;;;16.00;8.35;;;;;;;10.76;60.53;99816.26;1712744;83;21100;-37
2021/10/17 07:52:50;;;;;;;15.03;7.60;;;;;;;10.78;60.40;99818.06;1713070;83;21763;-37
2021/10/17 07:55:21;;;;;;;16.37;7.65;;;;;;;10.83;60.25;99816.45;1711286;83;20957;-37
2021/10/17 07:57:53;;;;;;;14.07;7.55;;;;;;;10.92;60.29;99805.42;1712409;83;21002;-37
2021/10/17 08:00:22;;;;;;;18.70;7.67;;;;;;;11.07;60.40;99811.41;1713045;83;21088;-37
2021/10/17 08:02:54;;;;;;;16.93;7.83;;;;;;;11.21;60.05;99810.95;1709062;83;21066;-37
2021/10/17 08:05:21;;;;;;;13.83;7.50;;;;;;;11.34;59.95;99802.91;1707351;84;21859;-37
2021/10/17 08:07:49;;;;;;;13.90;5.65;;;;;;;11.47;59.82;99809.03;1707332;84;21536;-37
2021/10/17 08:10:18;;;;;;;15.48;5.87;;;;;;;11.53;57.36;99808.38;1706938;84;20998;-37
2021/10/17 08:12:46;;;;;;;17.17;5.75;;;;;;;11.54;56.48;99808.61;1707597;83;21066;-37
2021/10/17 08:15:12;;;;;;;12.82;5.37;;;;;;;11.53;56.05;99807.02;1707081;84;21630;-37
2021/10/17 08:17:39;;;;;;;13.32;5.35;;;;;;;11.52;56.10;99810.87;1707263;84;21106;-37
2021/10/17 08:20:09;;;;;;;15.50;5.90;;;;;;;11.55;56.68;99808.83;1706788;83;21036;-37
2021/10/17 08:22:36;;;;;;;20.52;9.98;;;;;;;11.61;56.54;99804.70;1707562;83;21013;-37
2021/10/17 08:25:05;;;;;;;11.88;7.30;;;;;;;11.70;56.13;99810.72;1707151;84;21010;-37
2021/10/17 08:27:34;;;;;;;16.60;7.50;;;;;;;11.75;56.25;99811.82;1707395;83;21022;-37
2021/10/17 08:30:02;;;;;;;17.35;5.92;;;;;;;11.79;55.69;99805.67;1707220;84;21504;-37
2021/10/17 08:32:29;;;;;;;11.22;5.30;;;;;;;11.78;55.08;99808.16;1707426;84;20911;-37
2021/10/17 08:34:56;;;;;;;12.90;5.50;;;;;;;11.74;55.24;99808.09;1707251;84;21025;-37
2021/10/17 08:37:23;;;;;;;14.63;5.70;;;;;;;11.70;54.58;99808.00;1707040;84;21050;-37
2021/10/17 08:39:57;;;;;;;12.73;5.72;;;;;;;11.69;54.87;99809.13;1705099;84;21018;-37
2021/10/17 08:42:25;;;;;;;10.93;5.25;;;;;;;11.66;55.44;99808.50;1707447;84;21112;-37
2021/10/17 08:44:55;;;;;;;17.17;5.78;;;;;;;11.62;54.52;99808.17;1707455;84;21528;-38
2021/10/17 08:47:22;;;;;;;15.28;6.12;;;;;;;11.60;54.18;99807.20;1707683;84;21464;-37
2021/10/17 08:49:48;;;;;;;9.98;4.90;;;;;;;11.58;53.52;99811.39;1707459;84;21041;-37
2021/10/17 08:52:16;;;;;;;14.70;6.20;;;;;;;11.56;53.69;99814.48;1630430;85;21033;-37
2021/10/17 08:54:45;;;;;;;12.00;6.00;;;;;;;11.58;54.32;99817.61;1678026;85;21496;-37
2021/10/17 08:57:12;;;;;;;14.90;6.40;;;;;;;11.64;54.41;99819.48;1678815;85;20962;-37
2021/10/17 08:59:48;;;;;;;14.25;5.97;;;;;;;11.67;54.24;99820.91;1678870;85;20922;-37
2021/10/17 09:02:18;;;;;;;18.70;6.62;;;;;;;11.73;54.20;99811.37;1678799;85;21089;-37
2021/10/17 09:05:05;;;;;;;13.08;6.33;;;;;;;11.83;53.76;99810.03;1682448;85;21060;-37
2021/10/17 09:07:33;;;;;;;13.60;5.78;;;;;;;11.90;53.38;99812.91;1682148;85;21140;-37
2021/10/17 09:10:20;;;;;;;13.65;4.92;;;;;;;11.97;52.48;99817.11;1682719;85;20986;-37
2021/10/17 09:12:48;;;;;;;11.35;4.67;;;;;;;12.02;50.46;99810.61;1684050;85;21001;-38
2021/10/17 09:15:26;;;;;;;10.28;3.70;;;;;;;12.00;48.21;99815.06;1683926;85;21556;-37
2021/10/17 09:18:14;;;;;;;5.70;2.95;;;;;;;11.92;47.04;99822.04;1684276;85;21065;-37
2021/10/17 09:20:55;;;;;;;12.47;5.30;;;;;;;11.80;46.45;99817.55;1684121;85;21956;-37
2021/10/17 09:23:28;;;;;;;10.68;4.75;;;;;;;11.68;46.41;99823.06;1684075;85;20942;-37
2021/10/17 09:26:02;;;;;;;10.72;4.47;;;;;;;11.58;46.34;99812.75;1684197;85;20922;-37
2021/10/17 09:28:30;;;;;;;28.27;14.00;;;;;;;11.54;47.29;99816.75;1684190;85;21040;-37
2021/10/17 09:31:10;;;;;;;12.90;4.80;;;;;;;11.56;47.05;99808.27;1684235;85;21093;-37
2021/10/17 09:33:53;;;;;;;10.32;4.33;;;;;;;11.56;45.83;99811.77;1684427;85;21149;-37
2021/10/17 09:36:30;;;;;;;10.48;4.28;;;;;;;11.52;46.09;99807.40;1684228;85;21563;-37
2021/10/17 09:39:14;;;;;;;11.53;6.33;;;;;;;11.49;46.08;99800.73;1665901;85;21081;-37
2021/10/17 09:41:52;;;;;;;9.38;4.67;;;;;;;11.49;46.55;99800.73;1665772;85;21105;-38
2021/10/17 09:44:19;;;;;;;11.22;4.75;;;;;;;11.53;46.06;99801.59;1684152;85;21535;-37
2021/10/17 09:46:58;;;;;;;10.63;5.65;;;;;;;11.54;46.15;99806.45;1684155;85;21221;-37
2021/10/17 09:49:25;;;;;;;11.53;5.45;;;;;;;11.54;46.88;99805.89;1675621;85;20997;-37
2021/10/17 09:52:20;;;;;;;7.45;4.58;;;;;;;11.56;47.48;99809.05;1700611;83;20953;-37
2021/10/17 09:54:52;;;;;;;9.18;4.85;;;;;;;11.64;47.02;99802.63;1712675;83;21017;-37
2021/10/17 09:57:18;;;;;;;10.20;5.10;;;;;;;11.68;46.41;99796.69;1686351;83;21053;-37
2021/10/17 09:59:45;;;;;;;11.60;5.15;;;;;;;11.76;46.33;99799.80;1712846;83;21563;-37
2021/10/17 10:02:13;;;;;;;9.43;4.95;;;;;;;11.85;46.04;99800.17;1712606;83;20977;-37
2021/10/17 10:04:43;;;;;;;9.65;4.30;;;;;;;11.92;45.53;99801.66;1714161;83;21079;-37
2021/10/17 10:07:12;;;;;;;11.97;4.25;;;;;;;11.95;45.90;99798.25;1715702;83;20997;-37
2021/10/17 10:09:39;;;;;;;6.62;4.12;;;;;;;11.98;45.81;99788.80;1691102;83;21092;-37
2021/10/17 10:12:06;;;;;;;11.15;4.65;;;;;;;12.00;44.90;99787.09;1716078;83;21136;-37
2021/10/17 10:14:33;;;;;;;9.75;4.50;;;;;;;11.98;44.55;99792.09;1715756;83;21832;-37
2021/10/17 10:17:02;;;;;;;10.15;4.65;;;;;;;11.97;44.37;99791.88;1715907;83;21015;-37
2021/10/17 10:19:31;;;;;;;10.93;4.30;;;;;;;11.99;44.94;99786.88;1715794;83;20978;-37
2021/10/17 10:21:58;;;;;;;8.43;4.62;;;;;;;12.07;45.16;99787.22;1730164;82;21243;-37
2021/10/17 10:24:27;;;;;;;11.43;4.40;;;;;;;12.15;44.29;99783.52;1720724;83;21154;-37
2021/10/17 10:26:54;;;;;;;9.80;4.30;;;;;;;11.90;44.71;99740.13;1694395;83;21483;-37
2021/10/17 10:29:32;;;;;;;11.55;5.30;;;;;;;12.24;44.10;99781.92;1720734;83;20936;-37
2021/10/17 10:32:03;;;;;;;12.95;5.05;;;;;;;12.19;43.95;99783.00;1715722;83;22768;-37
2021/10/17 10:34:56;;;;;;;9.75;4.58;;;;;;;12.12;44.63;99780.93;1720576;83;20996;-37
2021/10/17 10:37:27;;;;;;;12.80;6.20;;;;;;;12.09;44.84;99779.51;1720497;83;21818;-37
2021/10/17 10:40:08;;;;;;;11.05;5.05;;;;;;;12.04;45.32;99779.80;1720531;83;20953;-37
2021/10/17 10:42:46;;;;;;;11.97;4.78;;;;;;;11.99;45.19;99774.08;1720512;83;21004;-37
2021/10/17 10:45:33;;;;;;;11.75;4.70;;;;;;;11.97;45.48;99773.64;1719858;83;21550;-37
2021/10/17 10:48:17;;;;;;;12.50;4.95;;;;;;;11.98;45.47;99769.78;1719896;83;21270;-37
2021/10/17 10:50:57;;;;;;;10.93;4.67;;;;;;;11.96;45.30;99767.19;1720657;83;21129;-37
2021/10/17 10:53:47;;;;;;;9.55;4.33;;;;;;;11.93;45.11;99763.84;1720538;83;21323;-37
2021/10/17 10:56:48;;;;;;;8.60;4.00;;;;;;;11.90;45.23;99763.22;1720803;83;21176;-37
2021/10/17 10:59:17;;;;;;;;;;;;;;;11.87;45.52;99754.41;1723133;83;20969;-37
2021/10/17 11:02:11;;;;;;;10.78;4.83;;;;;;;11.86;45.18;99758.29;1720634;83;20175;-37
2021/10/17 11:04:45;;;;;;;13.05;4.97;;;;;;;11.74;45.52;99748.34;1718781;83;22035;-37
2021/10/17 11:07:29;;;;;;;10.00;4.90;;;;;;;11.76;46.18;99754.97;1715480;83;21474;-37
2021/10/17 11:10:05;;;;;;;10.85;5.40;;;;;;;11.80;45.80;99752.92;1715421;83;21512;-37
2021/10/17 11:12:51;;;;;;;11.25;4.80;;;;;;;11.79;46.04;99751.34;1685713;83;21612;-37
2021/10/17 11:15:22;;;;;;;9.98;5.35;;;;;;;11.81;46.62;99751.78;1715089;83;21499;-37
2021/10/17 11:17:59;;;;;;;10.28;5.12;;;;;;;11.83;46.63;99750.83;1715013;83;21123;-37
2021/10/17 11:20:30;;;;;;;9.70;4.28;;;;;;;11.85;46.69;99748.56;1715283;83;21582;-37
2021/10/17 11:22:58;;;;;;;8.78;4.08;;;;;;;11.88;46.61;99751.91;1715143;83;21112;-37
2021/10/17 11:25:26;;;;;;;13.03;5.12;;;;;;;11.89;46.52;99751.56;1715081;83;21035;-37
2021/10/17 11:27:53;;;;;;;9.88;4.33;;;;;;;11.90;46.34;99749.63;1715140;83;21394;-37
2021/10/17 11:30:31;;;;;;;13.30;5.20;;;;;;;11.89;46.48;99737.19;1714936;83;21557;-37
2021/10/17 11:33:00;;;;;;;11.90;5.28;;;;;;;11.87;46.05;99743.53;1715214;83;21048;-37
2021/10/17 11:35:35;;;;;;;9.88;4.90;;;;;;;11.87;46.07;99746.25;1715318;83;21588;-37
2021/10/17 11:38:04;;;;;;;13.40;4.72;;;;;;;11.88;46.29;99745.12;1715124;83;21031;-37